Historyczne dane pomiarowe

Dodano dane terminowe – wersja testowa.

Dane z okresu 1951-2019

Wersja bazy: 1.34 [2019-03-16, lista zmian], aktualizacja planowana na 2019-04-15

Dane meteo z obszaru Polski uzyskane na podstawie danych udostępnionych przez Instytut Meteorologii i Gospodarki Wodnej – Państwowy Instytut Badawczy.

 

Wybierz Datę:    

       

TemperaturaWilgotnośćWiatrCiśnienieOpadyŚniegCzas trwania zjawisk
 Stacja t tx tn tng RH VA  wxwx mslp ppp RRR   cm mm wxwxwxwxwxwxwx
1907-06-13 21.2 26.7 14.5--------- 0.0--x---------
1907-06-14 16.8 21.5 13.2--------- 12.3--x---------
1907-06-15 18.0 24.0 11.8--------- 0.0--x---------
1907-06-16 19.0 24.0 13.6--------- 0.0--x---------
1907-06-17 14.8 19.5 8.6--------- 1.0--x---------
1907-06-18 17.6 22.7 12.1--------- 0.0--x---------
1907-06-19 14.2 20.0 13.3--------- 0.0--x---------
1907-06-20 17.0 22.7 9.8--------- 1.4--x---------
1907-06-21 18.2 27.9 14.1--------- 0.0--x---------
1907-06-22 16.5 23.1 10.3--------- 7.9--x---------
1907-06-23 17.2 22.4 11.6--------- 0.0--x---------
1907-06-24 14.6 19.6 10.0--------- 0.1--x---------
1907-06-25 15.3 20.2 9.2--------- 1.4--x---------
1907-06-26 15.2 19.7 10.5--------- 1.9--x---------
1907-06-27 18.6 23.3 13.2--------- 2.1--x---------
1907-06-28 22.8 30.4 13.5--------- 0.0--x---------
1907-06-29 21.5 29.4 17.6--------- 0.0--x---------
1907-06-30 22.7 28.8 15.6--------- 0.2--x---------
1907-07-01 17.7 23.6 13.4--------- 12.2--x---------
1907-07-02 13.8 17.5 12.1--------- 26.5--x---------
1907-07-03 10.7 13.5 9.0--------- 32.5--x---------
1907-07-04 16.8 22.0 8.7--------- 1.1--x---------
1907-07-05 19.9 28.6 13.7--------- 0.0--x---------
1907-07-06 18.1 22.4 14.1--------- 5.1--x---------
1907-07-07 15.0 20.4 13.5--------- 2.0--x---------
1907-07-08 17.8 23.2 9.7--------- 4.7--x---------
1907-07-09 18.0 24.4 13.3--------- 0.0--x---------
1907-07-10 17.2 23.5 10.3--------- 0.0--x---------
1907-07-11 14.9 20.2 13.3--------- 0.4--x---------
1907-07-12 11.0 13.4 9.6--------- 18.3--x---------
1.9 ms

 

Źródłem pochodzenia danych jest Instytut Meteorologii i Gospodarki Wodnej – Państwowy Instytut Badawczy. Dane Instytutu Meteorologii i Gospodarki Wodnej – Państwowego Instytutu Badawczego zostały przetworzone.

Dane źródłowe można odnaleźć na stronie https://dane.imgw.pl